| time (UTC) | temp C | wind direction | speed KPH | gust KPH | rain 1hr cm | rain 24hr cm | rain mn cm | humidity % | barometer mb |
| 20260503200012 | 16 | 131 | 0.0 | 3.2 | 0.00 | 0.00 | 0.00 | 37 | 1015.9 |
| 20260503194515 | 16 | 131 | 0.0 | 1.6 | 0.00 | 0.00 | 0.00 | 36 | 1016.1 |
| 20260503193017 | 16 | 131 | 0.0 | 3.2 | 0.00 | 0.00 | 0.00 | 35 | 1016.3 |
| 20260503191513 | 16 | 131 | 0.0 | 4.8 | 0.00 | 0.00 | 0.00 | 37 | 1016.5 |
| 20260503190053 | 16 | 131 | 0.0 | 3.2 | 0.00 | 0.00 | 0.00 | 35 | 1016.5 |
| 20260503184556 | 16 | 131 | 0.0 | 4.8 | 0.00 | 0.00 | 0.00 | 34 | 1016.9 |
| 20260503183052 | 16 | 130 | 0.0 | 4.8 | 0.00 | 0.00 | 0.00 | 36 | 1016.8 |
| 20260503181604 | 16 | 131 | 0.0 | 3.2 | 0.00 | 0.00 | 0.00 | 36 | 1017.1 |
| 20260503174534 | 15 | 131 | 0.0 | 3.2 | 0.00 | 0.00 | 0.00 | 38 | 1017.5 |
| 20260503173036 | 15 | 131 | 0.0 | 4.8 | 0.00 | 0.00 | 0.00 | 36 | 1017.9 |
| 20260503171533 | 15 | 131 | 0.0 | 3.2 | 0.00 | 0.00 | 0.00 | 38 | 1018.1 |
| 20260503081550 | 3 | 131 | 0.0 | 0.0 | 0.00 | 0.00 | 0.00 | 83 | 1015.9 |
| 20260503071506 | 3 | 131 | 0.0 | 0.0 | 0.00 | 0.00 | 0.00 | 81 | 1015.4 |
| 20260503060108 | 5 | 131 | 0.0 | 0.0 | 0.00 | 0.00 | 0.00 | 76 | 1014.9 |
| 20260503054610 | 6 | 131 | 0.0 | 0.0 | 0.00 | 0.00 | 0.00 | 75 | 1015.1 |
| 20260503054503 | 6 | 131 | 0.0 | 0.0 | 0.00 | 0.00 | 0.00 | 75 | 1015.1 |
| 20260503053100 | 6 | 131 | 0.0 | 0.0 | 0.00 | 0.00 | 0.00 | 74 | 1015.1 |
| 20260503053001 | 6 | 131 | 0.0 | 0.0 | 0.00 | 0.00 | 0.00 | 74 | 1015.1 |
| 20260503051503 | 5 | 131 | 0.0 | 0.0 | 0.00 | 0.00 | 0.00 | 74 | 1015.2 |
| 20260503050005 | 5 | 131 | 0.0 | 0.0 | 0.00 | 0.00 | 0.00 | 74 | 1015.2 |
| 20260503044505 | 6 | 131 | 0.0 | 0.0 | 0.00 | 0.00 | 0.00 | 75 | 1015.1 |
| 20260503043007 | 5 | 131 | 0.0 | 0.0 | 0.00 | 0.00 | 0.00 | 74 | 1015.0 |
| 20260503041511 | 5 | 131 | 0.0 | 0.0 | 0.00 | 0.00 | 0.00 | 74 | 1014.8 |
| 20260503040015 | 6 | 131 | 0.0 | 0.0 | 0.00 | 0.00 | 0.00 | 72 | 1014.4 |
| 20260503034512 | 6 | 131 | 0.0 | 0.0 | 0.00 | 0.00 | 0.00 | 71 | 1014.3 |
| 20260503033106 | 6 | 131 | 0.0 | 0.0 | 0.00 | 0.00 | 0.00 | 70 | 1014.3 |
| 20260503031551 | 6 | 131 | 0.0 | 0.0 | 0.00 | 0.00 | 0.00 | 69 | 1014.2 |
| 20260503030057 | 7 | 131 | 0.0 | 0.0 | 0.00 | 0.00 | 0.00 | 67 | 1014.1 |
| 20260503024557 | 7 | 131 | 0.0 | 0.0 | 0.00 | 0.00 | 0.00 | 65 | 1014.0 |
| 20260503023105 | 7 | 131 | 0.0 | 0.0 | 0.00 | 0.00 | 0.00 | 64 | 1014.0 |
| 20260503021504 | 8 | 131 | 0.0 | 0.0 | 0.00 | 0.00 | 0.00 | 63 | 1013.7 |
| 20260503020005 | 8 | 131 | 0.0 | 0.0 | 0.00 | 0.00 | 0.00 | 61 | 1013.6 |
| 20260503014508 | 8 | 131 | 0.0 | 0.0 | 0.00 | 0.00 | 0.00 | 58 | 1013.4 |
| 20260503013011 | 8 | 131 | 0.0 | 6.4 | 0.00 | 0.00 | 0.00 | 58 | 1013.4 |
| 20260503011602 | 9 | 131 | 0.0 | 1.6 | 0.00 | 0.00 | 0.00 | 56 | 1013.1 |
| 20260503010053 | 10 | 131 | 0.0 | 0.0 | 0.00 | 0.00 | 0.00 | 56 | 1012.9 |
| 20260503004550 | 10 | 131 | 0.0 | 0.0 | 0.00 | 0.00 | 0.00 | 53 | 1012.7 |
| 20260503003101 | 10 | 131 | 0.0 | 1.6 | 0.00 | 0.00 | 0.00 | 50 | 1012.5 |
| 20260503001557 | 11 | 131 | 0.0 | 1.6 | 0.00 | 0.00 | 0.00 | 50 | 1012.1 |
| 20260503000100 | 11 | 131 | 0.0 | 3.2 | 0.00 | 0.00 | 0.00 | 48 | 1011.7 |
| 20260502234555 | 12 | 131 | 0.0 | 8.0 | 0.00 | 0.00 | 0.00 | 46 | 1011.5 |
| 20260502233100 | 12 | 131 | 0.0 | 3.2 | 0.00 | 0.00 | 0.00 | 46 | 1011.4 |
| 20260502231551 | 12 | 131 | 1.6 | 6.4 | 0.00 | 0.00 | 0.00 | 44 | 1011.2 |
| 20260502230108 | 12 | 131 | 1.6 | 8.0 | 0.00 | 0.00 | 0.00 | 43 | 1011.2 |
| 20260502224600 | 12 | 131 | 0.0 | 4.8 | 0.00 | 0.00 | 0.00 | 44 | 1011.0 |
| 20260502224501 | 12 | 131 | 0.0 | 4.8 | 0.00 | 0.00 | 0.00 | 44 | 1010.8 |
| 20260502223100 | 13 | 130 | 0.0 | 4.8 | 0.00 | 0.00 | 0.00 | 43 | 1010.9 |
| 20260502223002 | 13 | 131 | 0.0 | 4.8 | 0.00 | 0.00 | 0.00 | 42 | 1010.9 |
| 20260502221601 | 13 | 131 | 0.0 | 4.8 | 0.00 | 0.00 | 0.00 | 42 | 1010.9 |
| 20260502221503 | 13 | 131 | 0.0 | 4.8 | 0.00 | 0.00 | 0.00 | 42 | 1010.8 |
| 20260502220003 | 13 | 131 | 0.0 | 6.4 | 0.00 | 0.00 | 0.00 | 44 | 1010.7 |
| 20260502214557 | 13 | 131 | 0.0 | 3.2 | 0.00 | 0.00 | 0.00 | 40 | 1010.5 |
| 20260502213055 | 13 | 131 | 0.0 | 4.8 | 0.00 | 0.00 | 0.00 | 42 | 1010.3 |
| 20260502211558 | 13 | 131 | 1.6 | 8.0 | 0.00 | 0.00 | 0.00 | 40 | 1010.2 |
| 20260502210057 | 14 | 131 | 0.0 | 6.4 | 0.00 | 0.00 | 0.00 | 38 | 1010.2 |
| 20260502204600 | 15 | 131 | 0.0 | 4.8 | 0.00 | 0.00 | 0.00 | 40 | 1010.2 |
| 20260502203059 | 15 | 131 | 0.0 | 4.8 | 0.00 | 0.00 | 0.00 | 41 | 1010.0 |
| 20260502201539 | 15 | 131 | 0.0 | 11.3 | 0.00 | 0.00 | 0.00 | 39 | 1010.0 |